Riverdale, Georgia
Current Conditions -  °F | °C
As of 12:52 PM on Friday 24 Oct 2014 (Local Time) from KATL Reporting Station
Broken Clouds Broken Clouds  
Wind Chill: 68°   Ceiling: 25000
Heat Index: 68°   Visibility: 10mi
Dew Point: 47°   Wind: 8mph
Humidity: 47%   Direction: 270°W
Pressure: 30.07"   Gusts: NA
Location:  33.57°N, 84.41°W
Report Text: KATL 241652Z 27007KT 10SM FEW150 SCT180 BKN250 20/08 A3007 RMK AO2 SLP178 T02000083
Loading
Personal Weather Stations






























Interactive Weather Map
Tropical Storm Tracking
New forecast layout! Learn more

10-Day Weather Forecast

Advertisements
Track Severe Weather on mobile